sensor_id;sensor_type;location;lat;lon;timestamp;P1;durP1;ratioP1;P2;durP2;ratioP2
78871;SDS011;68247;43.514;1.502;2023-08-07T00:00:51;7.93;;;2.00;;
78871;SDS011;68247;43.514;1.502;2023-08-07T00:03:17;5.40;;;1.60;;
78871;SDS011;68247;43.514;1.502;2023-08-07T00:05:47;5.82;;;1.52;;
78871;SDS011;68247;43.514;1.502;2023-08-07T00:08:13;4.40;;;1.45;;
78871;SDS011;68247;43.514;1.502;2023-08-07T00:10:38;5.33;;;1.70;;
78871;SDS011;68247;43.514;1.502;2023-08-07T00:13:04;6.63;;;1.40;;
78871;SDS011;68247;43.514;1.502;2023-08-07T00:15:30;4.80;;;1.60;;
78871;SDS011;68247;43.514;1.502;2023-08-07T00:17:55;4.78;;;1.60;;
78871;SDS011;68247;43.514;1.502;2023-08-07T00:20:21;5.77;;;1.50;;
78871;SDS011;68247;43.514;1.502;2023-08-07T00:22:46;6.57;;;1.90;;
78871;SDS011;68247;43.514;1.502;2023-08-07T00:25:12;6.00;;;1.60;;
78871;SDS011;68247;43.514;1.502;2023-08-07T00:27:38;6.87;;;1.60;;
78871;SDS011;68247;43.514;1.502;2023-08-07T00:30:04;5.85;;;1.80;;
78871;SDS011;68247;43.514;1.502;2023-08-07T00:32:30;5.50;;;1.30;;
78871;SDS011;68247;43.514;1.502;2023-08-07T00:34:55;5.60;;;1.40;;
78871;SDS011;68247;43.514;1.502;2023-08-07T00:37:20;6.17;;;1.47;;
78871;SDS011;68247;43.514;1.502;2023-08-07T00:39:46;5.57;;;1.63;;
78871;SDS011;68247;43.514;1.502;2023-08-07T00:42:11;6.55;;;1.55;;
78871;SDS011;68247;43.514;1.502;2023-08-07T00:44:37;5.67;;;1.20;;
78871;SDS011;68247;43.514;1.502;2023-08-07T00:47:02;3.50;;;1.10;;
78871;SDS011;68247;43.514;1.502;2023-08-07T00:49:28;3.33;;;1.60;;
78871;SDS011;68247;43.514;1.502;2023-08-07T00:51:54;3.20;;;1.30;;
78871;SDS011;68247;43.514;1.502;2023-08-07T00:54:19;6.53;;;1.73;;
78871;SDS011;68247;43.514;1.502;2023-08-07T00:56:45;4.53;;;1.33;;
78871;SDS011;68247;43.514;1.502;2023-08-07T00:59:12;7.30;;;1.80;;
78871;SDS011;68247;43.514;1.502;2023-08-07T01:01:38;5.28;;;1.35;;
78871;SDS011;68247;43.514;1.502;2023-08-07T01:04:04;6.43;;;1.77;;
78871;SDS011;68247;43.514;1.502;2023-08-07T01:06:30;4.10;;;1.30;;
78871;SDS011;68247;43.514;1.502;2023-08-07T01:08:55;4.50;;;1.33;;
78871;SDS011;68247;43.514;1.502;2023-08-07T01:19:24;5.60;;;1.73;;
78871;SDS011;68247;43.514;1.502;2023-08-07T01:24:49;5.88;;;1.80;;
78871;SDS011;68247;43.514;1.502;2023-08-07T01:29:48;4.80;;;1.58;;
78871;SDS011;68247;43.514;1.502;2023-08-07T01:35:08;4.82;;;1.50;;
78871;SDS011;68247;43.514;1.502;2023-08-07T01:37:41;5.78;;;1.50;;
78871;SDS011;68247;43.514;1.502;2023-08-07T01:40:07;4.57;;;1.40;;
78871;SDS011;68247;43.514;1.502;2023-08-07T01:42:34;7.70;;;1.45;;
78871;SDS011;68247;43.514;1.502;2023-08-07T01:45:00;4.80;;;1.60;;
78871;SDS011;68247;43.514;1.502;2023-08-07T01:47:26;4.27;;;1.30;;
78871;SDS011;68247;43.514;1.502;2023-08-07T01:49:51;5.63;;;1.73;;
78871;SDS011;68247;43.514;1.502;2023-08-07T01:52:16;5.83;;;1.50;;
78871;SDS011;68247;43.514;1.502;2023-08-07T01:54:42;4.50;;;1.67;;
78871;SDS011;68247;43.514;1.502;2023-08-07T01:57:07;5.60;;;1.60;;
78871;SDS011;68247;43.514;1.502;2023-08-07T01:59:33;5.50;;;1.67;;
78871;SDS011;68247;43.514;1.502;2023-08-07T02:01:58;4.63;;;1.40;;
78871;SDS011;68247;43.514;1.502;2023-08-07T02:04:23;5.60;;;1.67;;
78871;SDS011;68247;43.514;1.502;2023-08-07T02:06:49;7.37;;;2.03;;
78871;SDS011;68247;43.514;1.502;2023-08-07T02:09:14;5.63;;;2.07;;
78871;SDS011;68247;43.514;1.502;2023-08-07T02:11:40;4.82;;;1.75;;
78871;SDS011;68247;43.514;1.502;2023-08-07T02:14:05;5.00;;;2.00;;
78871;SDS011;68247;43.514;1.502;2023-08-07T02:16:31;6.80;;;1.73;;
78871;SDS011;68247;43.514;1.502;2023-08-07T02:18:56;5.93;;;1.80;;
78871;SDS011;68247;43.514;1.502;2023-08-07T02:21:21;4.77;;;1.70;;
78871;SDS011;68247;43.514;1.502;2023-08-07T02:23:47;4.18;;;1.40;;
78871;SDS011;68247;43.514;1.502;2023-08-07T02:26:13;5.07;;;1.30;;
78871;SDS011;68247;43.514;1.502;2023-08-07T02:28:38;6.30;;;1.60;;
78871;SDS011;68247;43.514;1.502;2023-08-07T02:31:03;5.32;;;1.60;;
78871;SDS011;68247;43.514;1.502;2023-08-07T02:33:29;6.73;;;1.60;;
78871;SDS011;68247;43.514;1.502;2023-08-07T02:35:55;6.32;;;1.80;;
78871;SDS011;68247;43.514;1.502;2023-08-07T02:38:21;5.43;;;1.80;;
78871;SDS011;68247;43.514;1.502;2023-08-07T02:40:47;6.05;;;1.70;;
78871;SDS011;68247;43.514;1.502;2023-08-07T02:43:12;6.53;;;1.63;;
78871;SDS011;68247;43.514;1.502;2023-08-07T02:45:37;7.40;;;1.93;;
78871;SDS011;68247;43.514;1.502;2023-08-07T02:48:03;6.20;;;1.67;;
78871;SDS011;68247;43.514;1.502;2023-08-07T02:50:29;5.20;;;1.48;;
78871;SDS011;68247;43.514;1.502;2023-08-07T02:52:57;6.93;;;1.95;;
78871;SDS011;68247;43.514;1.502;2023-08-07T02:55:25;6.78;;;1.85;;
78871;SDS011;68247;43.514;1.502;2023-08-07T02:57:50;5.20;;;1.80;;
78871;SDS011;68247;43.514;1.502;2023-08-07T03:00:16;6.17;;;1.60;;
78871;SDS011;68247;43.514;1.502;2023-08-07T03:02:41;5.03;;;1.67;;
78871;SDS011;68247;43.514;1.502;2023-08-07T03:05:07;5.70;;;1.40;;
78871;SDS011;68247;43.514;1.502;2023-08-07T03:07:33;3.80;;;1.52;;
78871;SDS011;68247;43.514;1.502;2023-08-07T03:09:59;6.00;;;1.50;;
78871;SDS011;68247;43.514;1.502;2023-08-07T03:12:25;5.80;;;1.73;;
78871;SDS011;68247;43.514;1.502;2023-08-07T03:14:50;6.03;;;1.90;;
78871;SDS011;68247;43.514;1.502;2023-08-07T03:17:16;6.90;;;1.40;;
78871;SDS011;68247;43.514;1.502;2023-08-07T03:19:42;4.85;;;1.60;;
78871;SDS011;68247;43.514;1.502;2023-08-07T03:22:08;7.80;;;1.65;;
78871;SDS011;68247;43.514;1.502;2023-08-07T03:24:34;4.37;;;1.60;;
78871;SDS011;68247;43.514;1.502;2023-08-07T03:26:59;8.43;;;1.60;;
78871;SDS011;68247;43.514;1.502;2023-08-07T03:29:25;7.83;;;2.00;;
78871;SDS011;68247;43.514;1.502;2023-08-07T03:31:50;5.50;;;1.53;;
78871;SDS011;68247;43.514;1.502;2023-08-07T03:34:15;7.23;;;1.53;;
78871;SDS011;68247;43.514;1.502;2023-08-07T03:36:41;3.50;;;1.23;;
78871;SDS011;68247;43.514;1.502;2023-08-07T03:39:06;5.67;;;1.60;;
78871;SDS011;68247;43.514;1.502;2023-08-07T03:41:32;6.30;;;1.67;;
78871;SDS011;68247;43.514;1.502;2023-08-07T03:43:58;6.70;;;1.98;;
78871;SDS011;68247;43.514;1.502;2023-08-07T03:46:23;6.07;;;1.73;;
78871;SDS011;68247;43.514;1.502;2023-08-07T03:48:49;6.10;;;1.87;;
78871;SDS011;68247;43.514;1.502;2023-08-07T03:51:14;5.10;;;1.60;;
78871;SDS011;68247;43.514;1.502;2023-08-07T03:53:41;5.38;;;1.73;;
78871;SDS011;68247;43.514;1.502;2023-08-07T03:56:07;5.43;;;1.67;;
78871;SDS011;68247;43.514;1.502;2023-08-07T03:58:32;6.72;;;1.83;;
78871;SDS011;68247;43.514;1.502;2023-08-07T04:00:58;3.60;;;1.37;;
78871;SDS011;68247;43.514;1.502;2023-08-07T04:03:23;5.97;;;1.50;;
78871;SDS011;68247;43.514;1.502;2023-08-07T04:05:52;5.17;;;1.77;;
78871;SDS011;68247;43.514;1.502;2023-08-07T04:08:21;4.35;;;1.60;;
78871;SDS011;68247;43.514;1.502;2023-08-07T04:11:00;7.40;;;1.60;;
78871;SDS011;68247;43.514;1.502;2023-08-07T04:13:27;4.35;;;1.58;;
78871;SDS011;68247;43.514;1.502;2023-08-07T04:15:52;5.80;;;1.93;;
78871;SDS011;68247;43.514;1.502;2023-08-07T04:18:18;5.15;;;1.50;;
78871;SDS011;68247;43.514;1.502;2023-08-07T04:20:48;4.23;;;1.33;;
78871;SDS011;68247;43.514;1.502;2023-08-07T04:23:15;7.57;;;1.63;;
78871;SDS011;68247;43.514;1.502;2023-08-07T04:25:40;4.53;;;1.70;;
78871;SDS011;68247;43.514;1.502;2023-08-07T04:28:05;5.00;;;1.70;;
78871;SDS011;68247;43.514;1.502;2023-08-07T04:30:31;4.23;;;1.53;;
78871;SDS011;68247;43.514;1.502;2023-08-07T04:32:56;4.90;;;1.57;;
78871;SDS011;68247;43.514;1.502;2023-08-07T04:35:22;7.53;;;1.88;;
78871;SDS011;68247;43.514;1.502;2023-08-07T04:37:47;5.93;;;1.87;;
78871;SDS011;68247;43.514;1.502;2023-08-07T04:40:12;4.70;;;1.60;;
78871;SDS011;68247;43.514;1.502;2023-08-07T04:42:38;8.00;;;1.60;;
78871;SDS011;68247;43.514;1.502;2023-08-07T04:45:03;4.78;;;1.60;;
78871;SDS011;68247;43.514;1.502;2023-08-07T04:47:29;6.83;;;1.80;;
78871;SDS011;68247;43.514;1.502;2023-08-07T04:49:55;6.05;;;1.60;;
78871;SDS011;68247;43.514;1.502;2023-08-07T04:52:20;6.10;;;1.37;;
78871;SDS011;68247;43.514;1.502;2023-08-07T04:54:46;5.77;;;1.50;;
78871;SDS011;68247;43.514;1.502;2023-08-07T04:57:11;6.03;;;1.60;;
78871;SDS011;68247;43.514;1.502;2023-08-07T04:59:36;4.83;;;1.77;;
78871;SDS011;68247;43.514;1.502;2023-08-07T05:02:02;5.63;;;1.50;;
78871;SDS011;68247;43.514;1.502;2023-08-07T05:04:27;5.47;;;1.70;;
78871;SDS011;68247;43.514;1.502;2023-08-07T05:06:53;6.53;;;1.93;;
78871;SDS011;68247;43.514;1.502;2023-08-07T05:09:18;6.65;;;1.70;;
78871;SDS011;68247;43.514;1.502;2023-08-07T05:11:44;5.40;;;1.63;;
78871;SDS011;68247;43.514;1.502;2023-08-07T05:14:09;6.80;;;1.30;;
78871;SDS011;68247;43.514;1.502;2023-08-07T05:16:35;4.77;;;1.70;;
78871;SDS011;68247;43.514;1.502;2023-08-07T05:19:00;7.50;;;1.80;;
78871;SDS011;68247;43.514;1.502;2023-08-07T05:21:26;4.57;;;1.60;;
78871;SDS011;68247;43.514;1.502;2023-08-07T05:23:51;6.83;;;1.80;;
78871;SDS011;68247;43.514;1.502;2023-08-07T05:26:20;4.32;;;1.52;;
78871;SDS011;68247;43.514;1.502;2023-08-07T05:28:46;4.60;;;1.80;;
78871;SDS011;68247;43.514;1.502;2023-08-07T05:31:11;6.40;;;1.57;;
78871;SDS011;68247;43.514;1.502;2023-08-07T05:33:37;5.88;;;1.60;;
78871;SDS011;68247;43.514;1.502;2023-08-07T05:36:02;7.73;;;1.73;;
78871;SDS011;68247;43.514;1.502;2023-08-07T05:38:28;5.63;;;1.60;;
78871;SDS011;68247;43.514;1.502;2023-08-07T05:40:53;4.90;;;1.60;;
78871;SDS011;68247;43.514;1.502;2023-08-07T05:43:18;5.60;;;1.85;;
78871;SDS011;68247;43.514;1.502;2023-08-07T05:45:44;5.33;;;1.67;;
78871;SDS011;68247;43.514;1.502;2023-08-07T05:48:11;5.45;;;1.60;;
78871;SDS011;68247;43.514;1.502;2023-08-07T05:50:37;7.93;;;1.50;;
78871;SDS011;68247;43.514;1.502;2023-08-07T05:53:02;8.43;;;1.90;;
78871;SDS011;68247;43.514;1.502;2023-08-07T05:55:28;6.60;;;1.60;;
78871;SDS011;68247;43.514;1.502;2023-08-07T05:57:53;6.83;;;1.47;;
78871;SDS011;68247;43.514;1.502;2023-08-07T06:00:18;6.70;;;1.80;;
78871;SDS011;68247;43.514;1.502;2023-08-07T06:02:44;6.57;;;1.80;;
78871;SDS011;68247;43.514;1.502;2023-08-07T06:05:10;10.10;;;2.40;;
78871;SDS011;68247;43.514;1.502;2023-08-07T06:07:37;7.18;;;1.88;;
78871;SDS011;68247;43.514;1.502;2023-08-07T06:10:03;7.10;;;1.50;;
78871;SDS011;68247;43.514;1.502;2023-08-07T06:12:29;5.95;;;1.65;;
78871;SDS011;68247;43.514;1.502;2023-08-07T06:14:55;12.47;;;2.00;;
78871;SDS011;68247;43.514;1.502;2023-08-07T06:17:20;6.33;;;1.43;;
78871;SDS011;68247;43.514;1.502;2023-08-07T06:19:45;9.35;;;1.80;;
78871;SDS011;68247;43.514;1.502;2023-08-07T06:22:11;6.70;;;1.70;;
78871;SDS011;68247;43.514;1.502;2023-08-07T06:24:36;7.20;;;1.80;;
78871;SDS011;68247;43.514;1.502;2023-08-07T06:27:02;8.00;;;1.60;;
78871;SDS011;68247;43.514;1.502;2023-08-07T06:29:30;8.82;;;1.90;;
78871;SDS011;68247;43.514;1.502;2023-08-07T06:31:56;6.50;;;1.60;;
78871;SDS011;68247;43.514;1.502;2023-08-07T06:34:21;4.70;;;1.50;;
78871;SDS011;68247;43.514;1.502;2023-08-07T06:36:47;6.30;;;1.70;;
78871;SDS011;68247;43.514;1.502;2023-08-07T06:39:12;6.77;;;1.80;;
78871;SDS011;68247;43.514;1.502;2023-08-07T06:41:37;5.80;;;1.67;;
78871;SDS011;68247;43.514;1.502;2023-08-07T06:44:04;7.18;;;1.55;;
78871;SDS011;68247;43.514;1.502;2023-08-07T06:46:29;7.03;;;1.93;;
78871;SDS011;68247;43.514;1.502;2023-08-07T06:48:55;6.40;;;1.60;;
78871;SDS011;68247;43.514;1.502;2023-08-07T06:51:20;6.80;;;1.60;;
78871;SDS011;68247;43.514;1.502;2023-08-07T06:53:46;5.50;;;1.55;;
78871;SDS011;68247;43.514;1.502;2023-08-07T06:56:11;8.63;;;2.53;;
78871;SDS011;68247;43.514;1.502;2023-08-07T06:58:37;6.10;;;1.57;;
78871;SDS011;68247;43.514;1.502;2023-08-07T07:01:02;6.20;;;1.63;;
78871;SDS011;68247;43.514;1.502;2023-08-07T07:03:28;5.63;;;1.87;;
78871;SDS011;68247;43.514;1.502;2023-08-07T07:05:53;5.97;;;1.65;;
78871;SDS011;68247;43.514;1.502;2023-08-07T07:08:18;7.23;;;2.17;;
78871;SDS011;68247;43.514;1.502;2023-08-07T07:10:44;4.90;;;1.40;;
78871;SDS011;68247;43.514;1.502;2023-08-07T07:13:10;6.70;;;1.55;;
78871;SDS011;68247;43.514;1.502;2023-08-07T07:15:35;6.27;;;1.60;;
78871;SDS011;68247;43.514;1.502;2023-08-07T07:18:01;4.55;;;1.40;;
78871;SDS011;68247;43.514;1.502;2023-08-07T07:20:27;4.30;;;1.47;;
78871;SDS011;68247;43.514;1.502;2023-08-07T07:22:52;6.53;;;1.50;;
78871;SDS011;68247;43.514;1.502;2023-08-07T07:25:18;6.60;;;1.35;;
78871;SDS011;68247;43.514;1.502;2023-08-07T07:27:43;4.93;;;1.37;;
78871;SDS011;68247;43.514;1.502;2023-08-07T07:30:09;5.40;;;1.40;;
78871;SDS011;68247;43.514;1.502;2023-08-07T07:32:35;5.47;;;1.60;;
78871;SDS011;68247;43.514;1.502;2023-08-07T07:35:00;5.87;;;1.50;;
78871;SDS011;68247;43.514;1.502;2023-08-07T07:37:26;4.93;;;1.50;;
78871;SDS011;68247;43.514;1.502;2023-08-07T07:39:51;7.20;;;1.80;;
78871;SDS011;68247;43.514;1.502;2023-08-07T07:42:17;5.85;;;1.48;;
78871;SDS011;68247;43.514;1.502;2023-08-07T07:44:42;6.77;;;1.30;;
78871;SDS011;68247;43.514;1.502;2023-08-07T07:47:08;6.37;;;1.60;;
78871;SDS011;68247;43.514;1.502;2023-08-07T07:49:34;3.17;;;1.20;;
78871;SDS011;68247;43.514;1.502;2023-08-07T07:51:59;6.87;;;1.50;;
78871;SDS011;68247;43.514;1.502;2023-08-07T07:54:25;6.82;;;1.77;;
78871;SDS011;68247;43.514;1.502;2023-08-07T07:56:50;4.97;;;1.40;;
78871;SDS011;68247;43.514;1.502;2023-08-07T07:59:16;7.63;;;1.80;;
78871;SDS011;68247;43.514;1.502;2023-08-07T08:01:41;5.27;;;1.67;;
78871;SDS011;68247;43.514;1.502;2023-08-07T08:04:07;7.57;;;1.65;;
78871;SDS011;68247;43.514;1.502;2023-08-07T08:06:35;6.57;;;1.50;;
78871;SDS011;68247;43.514;1.502;2023-08-07T08:09:00;7.93;;;1.27;;
78871;SDS011;68247;43.514;1.502;2023-08-07T08:11:29;5.70;;;1.30;;
78871;SDS011;68247;43.514;1.502;2023-08-07T08:13:55;6.80;;;1.50;;
78871;SDS011;68247;43.514;1.502;2023-08-07T08:16:20;6.93;;;1.60;;
78871;SDS011;68247;43.514;1.502;2023-08-07T08:18:46;7.90;;;1.57;;
78871;SDS011;68247;43.514;1.502;2023-08-07T08:21:11;4.13;;;1.63;;
78871;SDS011;68247;43.514;1.502;2023-08-07T08:23:37;4.97;;;1.40;;
78871;SDS011;68247;43.514;1.502;2023-08-07T08:26:02;5.28;;;1.33;;
78871;SDS011;68247;43.514;1.502;2023-08-07T08:28:27;4.80;;;1.30;;
78871;SDS011;68247;43.514;1.502;2023-08-07T08:30:53;5.23;;;1.50;;
78871;SDS011;68247;43.514;1.502;2023-08-07T08:33:18;5.47;;;1.40;;
78871;SDS011;68247;43.514;1.502;2023-08-07T08:35:44;6.43;;;1.20;;
78871;SDS011;68247;43.514;1.502;2023-08-07T08:38:09;6.73;;;1.43;;
78871;SDS011;68247;43.514;1.502;2023-08-07T08:40:35;5.90;;;1.60;;
78871;SDS011;68247;43.514;1.502;2023-08-07T08:43:03;5.30;;;1.85;;
78871;SDS011;68247;43.514;1.502;2023-08-07T08:45:30;5.90;;;1.70;;
78871;SDS011;68247;43.514;1.502;2023-08-07T08:48:00;5.87;;;1.73;;
78871;SDS011;68247;43.514;1.502;2023-08-07T08:50:27;7.47;;;1.85;;
78871;SDS011;68247;43.514;1.502;2023-08-07T08:52:53;4.90;;;1.40;;
78871;SDS011;68247;43.514;1.502;2023-08-07T08:55:19;5.93;;;1.50;;
78871;SDS011;68247;43.514;1.502;2023-08-07T08:57:45;6.55;;;1.73;;
78871;SDS011;68247;43.514;1.502;2023-08-07T09:00:11;6.43;;;1.50;;
78871;SDS011;68247;43.514;1.502;2023-08-07T09:02:50;7.53;;;1.77;;
78871;SDS011;68247;43.514;1.502;2023-08-07T09:05:17;4.93;;;1.42;;
78871;SDS011;68247;43.514;1.502;2023-08-07T09:07:44;5.32;;;1.60;;
78871;SDS011;68247;43.514;1.502;2023-08-07T09:10:12;6.70;;;1.43;;
78871;SDS011;68247;43.514;1.502;2023-08-07T09:12:45;6.18;;;1.58;;
78871;SDS011;68247;43.514;1.502;2023-08-07T09:15:23;3.65;;;1.45;;
78871;SDS011;68247;43.514;1.502;2023-08-07T09:17:48;5.68;;;1.50;;
78871;SDS011;68247;43.514;1.502;2023-08-07T09:20:14;5.38;;;1.63;;
78871;SDS011;68247;43.514;1.502;2023-08-07T09:22:40;5.83;;;1.73;;
78871;SDS011;68247;43.514;1.502;2023-08-07T09:25:07;5.25;;;1.75;;
78871;SDS011;68247;43.514;1.502;2023-08-07T09:27:34;5.25;;;1.60;;
78871;SDS011;68247;43.514;1.502;2023-08-07T09:30:02;5.63;;;1.60;;
78871;SDS011;68247;43.514;1.502;2023-08-07T09:32:28;5.20;;;1.67;;
78871;SDS011;68247;43.514;1.502;2023-08-07T09:34:53;6.15;;;1.70;;
78871;SDS011;68247;43.514;1.502;2023-08-07T09:37:19;5.73;;;1.60;;
78871;SDS011;68247;43.514;1.502;2023-08-07T09:39:44;4.90;;;1.80;;
78871;SDS011;68247;43.514;1.502;2023-08-07T09:42:14;4.47;;;1.38;;
78871;SDS011;68247;43.514;1.502;2023-08-07T09:44:40;6.43;;;1.80;;
78871;SDS011;68247;43.514;1.502;2023-08-07T09:47:16;6.75;;;1.70;;
78871;SDS011;68247;43.514;1.502;2023-08-07T09:49:43;4.13;;;1.70;;
78871;SDS011;68247;43.514;1.502;2023-08-07T09:52:10;9.17;;;1.60;;
78871;SDS011;68247;43.514;1.502;2023-08-07T09:54:38;4.60;;;1.75;;
78871;SDS011;68247;43.514;1.502;2023-08-07T09:57:04;5.97;;;1.40;;
78871;SDS011;68247;43.514;1.502;2023-08-07T09:59:31;4.80;;;1.38;;
78871;SDS011;68247;43.514;1.502;2023-08-07T10:01:57;6.95;;;1.65;;
78871;SDS011;68247;43.514;1.502;2023-08-07T10:04:23;4.75;;;1.50;;
78871;SDS011;68247;43.514;1.502;2023-08-07T10:06:49;4.63;;;1.50;;
78871;SDS011;68247;43.514;1.502;2023-08-07T10:09:16;6.40;;;1.80;;
78871;SDS011;68247;43.514;1.502;2023-08-07T10:11:42;5.05;;;1.50;;
78871;SDS011;68247;43.514;1.502;2023-08-07T10:14:12;4.03;;;1.27;;
78871;SDS011;68247;43.514;1.502;2023-08-07T10:16:38;5.15;;;1.45;;
78871;SDS011;68247;43.514;1.502;2023-08-07T10:19:06;5.50;;;1.80;;
78871;SDS011;68247;43.514;1.502;2023-08-07T10:21:33;5.45;;;1.70;;
78871;SDS011;68247;43.514;1.502;2023-08-07T10:24:01;4.38;;;1.77;;
78871;SDS011;68247;43.514;1.502;2023-08-07T10:26:28;9.53;;;1.80;;
78871;SDS011;68247;43.514;1.502;2023-08-07T10:28:54;6.40;;;1.70;;
78871;SDS011;68247;43.514;1.502;2023-08-07T10:31:20;3.95;;;1.60;;
78871;SDS011;68247;43.514;1.502;2023-08-07T10:33:47;5.13;;;1.57;;
78871;SDS011;68247;43.514;1.502;2023-08-07T10:36:15;4.35;;;1.50;;
78871;SDS011;68247;43.514;1.502;2023-08-07T10:38:42;4.70;;;1.40;;
78871;SDS011;68247;43.514;1.502;2023-08-07T10:41:08;6.07;;;1.47;;
78871;SDS011;68247;43.514;1.502;2023-08-07T10:43:37;4.40;;;1.30;;
78871;SDS011;68247;43.514;1.502;2023-08-07T10:46:08;3.80;;;1.50;;
78871;SDS011;68247;43.514;1.502;2023-08-07T10:48:45;6.30;;;1.52;;
78871;SDS011;68247;43.514;1.502;2023-08-07T10:51:14;4.47;;;1.67;;
78871;SDS011;68247;43.514;1.502;2023-08-07T10:53:49;5.50;;;1.90;;
78871;SDS011;68247;43.514;1.502;2023-08-07T10:56:34;4.43;;;1.40;;
78871;SDS011;68247;43.514;1.502;2023-08-07T10:59:12;4.45;;;1.70;;
78871;SDS011;68247;43.514;1.502;2023-08-07T11:04:06;4.80;;;1.50;;
78871;SDS011;68247;43.514;1.502;2023-08-07T11:06:34;3.83;;;1.80;;
78871;SDS011;68247;43.514;1.502;2023-08-07T11:09:01;4.73;;;1.70;;
78871;SDS011;68247;43.514;1.502;2023-08-07T11:11:37;5.13;;;1.70;;
78871;SDS011;68247;43.514;1.502;2023-08-07T11:14:08;6.32;;;2.40;;
78871;SDS011;68247;43.514;1.502;2023-08-07T11:16:35;6.00;;;1.83;;
78871;SDS011;68247;43.514;1.502;2023-08-07T11:19:00;5.50;;;1.93;;
78871;SDS011;68247;43.514;1.502;2023-08-07T11:21:27;3.60;;;1.42;;
78871;SDS011;68247;43.514;1.502;2023-08-07T11:23:52;5.90;;;1.50;;
78871;SDS011;68247;43.514;1.502;2023-08-07T11:26:18;5.07;;;1.93;;
78871;SDS011;68247;43.514;1.502;2023-08-07T11:28:46;5.63;;;1.70;;
78871;SDS011;68247;43.514;1.502;2023-08-07T11:31:12;4.38;;;1.75;;
78871;SDS011;68247;43.514;1.502;2023-08-07T11:33:38;5.80;;;2.60;;
78871;SDS011;68247;43.514;1.502;2023-08-07T11:36:03;6.17;;;2.40;;
78871;SDS011;68247;43.514;1.502;2023-08-07T11:38:39;3.65;;;1.65;;
78871;SDS011;68247;43.514;1.502;2023-08-07T11:41:08;4.28;;;2.03;;
78871;SDS011;68247;43.514;1.502;2023-08-07T11:43:34;4.07;;;1.90;;
78871;SDS011;68247;43.514;1.502;2023-08-07T11:46:05;5.55;;;2.28;;
78871;SDS011;68247;43.514;1.502;2023-08-07T11:48:33;3.93;;;1.80;;
78871;SDS011;68247;43.514;1.502;2023-08-07T11:50:59;5.05;;;2.17;;
78871;SDS011;68247;43.514;1.502;2023-08-07T11:53:26;4.35;;;1.90;;
78871;SDS011;68247;43.514;1.502;2023-08-07T11:58:26;4.25;;;2.13;;
78871;SDS011;68247;43.514;1.502;2023-08-07T12:01:12;5.13;;;2.07;;
78871;SDS011;68247;43.514;1.502;2023-08-07T12:03:42;4.95;;;2.40;;
78871;SDS011;68247;43.514;1.502;2023-08-07T12:06:14;5.05;;;2.42;;
78871;SDS011;68247;43.514;1.502;2023-08-07T12:08:40;4.03;;;2.00;;
78871;SDS011;68247;43.514;1.502;2023-08-07T12:11:11;4.10;;;2.20;;
78871;SDS011;68247;43.514;1.502;2023-08-07T12:13:41;5.57;;;2.40;;
78871;SDS011;68247;43.514;1.502;2023-08-07T12:16:07;5.18;;;2.50;;
78871;SDS011;68247;43.514;1.502;2023-08-07T12:18:34;6.22;;;3.22;;
78871;SDS011;68247;43.514;1.502;2023-08-07T12:21:03;4.47;;;2.58;;
78871;SDS011;68247;43.514;1.502;2023-08-07T12:23:32;5.03;;;1.97;;
78871;SDS011;68247;43.514;1.502;2023-08-07T12:25:58;4.25;;;2.20;;
78871;SDS011;68247;43.514;1.502;2023-08-07T12:28:24;5.40;;;2.20;;
78871;SDS011;68247;43.514;1.502;2023-08-07T12:30:50;5.63;;;2.23;;
78871;SDS011;68247;43.514;1.502;2023-08-07T12:33:16;4.43;;;2.30;;
78871;SDS011;68247;43.514;1.502;2023-08-07T12:35:41;5.23;;;2.30;;
78871;SDS011;68247;43.514;1.502;2023-08-07T12:38:07;4.88;;;2.30;;
78871;SDS011;68247;43.514;1.502;2023-08-07T12:40:34;4.73;;;2.37;;
78871;SDS011;68247;43.514;1.502;2023-08-07T12:43:01;4.75;;;2.30;;
78871;SDS011;68247;43.514;1.502;2023-08-07T12:45:27;4.55;;;2.33;;
78871;SDS011;68247;43.514;1.502;2023-08-07T12:47:53;4.60;;;2.40;;
78871;SDS011;68247;43.514;1.502;2023-08-07T12:50:18;4.33;;;2.10;;
78871;SDS011;68247;43.514;1.502;2023-08-07T12:52:44;5.32;;;2.60;;
78871;SDS011;68247;43.514;1.502;2023-08-07T12:55:10;5.03;;;2.77;;
78871;SDS011;68247;43.514;1.502;2023-08-07T12:57:36;3.75;;;2.17;;
78871;SDS011;68247;43.514;1.502;2023-08-07T13:00:08;5.05;;;2.75;;
78871;SDS011;68247;43.514;1.502;2023-08-07T13:02:37;3.72;;;2.22;;
78871;SDS011;68247;43.514;1.502;2023-08-07T13:05:05;4.15;;;2.20;;
78871;SDS011;68247;43.514;1.502;2023-08-07T13:07:30;3.70;;;2.20;;
78871;SDS011;68247;43.514;1.502;2023-08-07T13:09:56;4.33;;;2.50;;
78871;SDS011;68247;43.514;1.502;2023-08-07T13:12:22;3.70;;;2.47;;
78871;SDS011;68247;43.514;1.502;2023-08-07T13:14:48;4.60;;;2.50;;
78871;SDS011;68247;43.514;1.502;2023-08-07T13:17:13;4.03;;;2.63;;
78871;SDS011;68247;43.514;1.502;2023-08-07T13:19:38;4.60;;;2.50;;
78871;SDS011;68247;43.514;1.502;2023-08-07T13:22:04;4.27;;;2.77;;
78871;SDS011;68247;43.514;1.502;2023-08-07T13:24:29;3.70;;;2.50;;
78871;SDS011;68247;43.514;1.502;2023-08-07T13:26:55;5.40;;;2.43;;
78871;SDS011;68247;43.514;1.502;2023-08-07T13:29:20;4.57;;;2.90;;
78871;SDS011;68247;43.514;1.502;2023-08-07T13:31:46;4.72;;;2.67;;
78871;SDS011;68247;43.514;1.502;2023-08-07T13:34:13;4.78;;;2.45;;
78871;SDS011;68247;43.514;1.502;2023-08-07T13:36:39;4.17;;;2.60;;
78871;SDS011;68247;43.514;1.502;2023-08-07T13:39:04;5.70;;;2.80;;
78871;SDS011;68247;43.514;1.502;2023-08-07T13:41:31;5.10;;;2.57;;
78871;SDS011;68247;43.514;1.502;2023-08-07T13:43:57;4.80;;;2.88;;
78871;SDS011;68247;43.514;1.502;2023-08-07T13:46:23;5.50;;;2.90;;
78871;SDS011;68247;43.514;1.502;2023-08-07T13:48:48;4.30;;;2.83;;
78871;SDS011;68247;43.514;1.502;2023-08-07T13:51:14;5.60;;;2.73;;
78871;SDS011;68247;43.514;1.502;2023-08-07T13:53:40;4.55;;;3.05;;
78871;SDS011;68247;43.514;1.502;2023-08-07T13:56:06;4.78;;;3.20;;
78871;SDS011;68247;43.514;1.502;2023-08-07T13:58:33;3.95;;;2.65;;
78871;SDS011;68247;43.514;1.502;2023-08-07T14:00:59;5.77;;;3.17;;
78871;SDS011;68247;43.514;1.502;2023-08-07T14:03:25;3.70;;;2.50;;
78871;SDS011;68247;43.514;1.502;2023-08-07T14:05:50;4.17;;;2.47;;
78871;SDS011;68247;43.514;1.502;2023-08-07T14:08:15;3.55;;;2.40;;
78871;SDS011;68247;43.514;1.502;2023-08-07T14:10:41;4.23;;;2.60;;
78871;SDS011;68247;43.514;1.502;2023-08-07T14:13:07;4.45;;;2.65;;
78871;SDS011;68247;43.514;1.502;2023-08-07T14:15:34;4.40;;;2.50;;
78871;SDS011;68247;43.514;1.502;2023-08-07T14:18:00;3.90;;;2.67;;
78871;SDS011;68247;43.514;1.502;2023-08-07T14:20:25;5.60;;;3.10;;
78871;SDS011;68247;43.514;1.502;2023-08-07T14:22:51;3.40;;;2.53;;
78871;SDS011;68247;43.514;1.502;2023-08-07T14:25:16;4.00;;;2.53;;
78871;SDS011;68247;43.514;1.502;2023-08-07T14:27:42;4.73;;;3.50;;
78871;SDS011;68247;43.514;1.502;2023-08-07T14:30:07;4.20;;;3.17;;
78871;SDS011;68247;43.514;1.502;2023-08-07T14:32:33;6.03;;;2.75;;
78871;SDS011;68247;43.514;1.502;2023-08-07T14:34:59;6.30;;;4.10;;
78871;SDS011;68247;43.514;1.502;2023-08-07T14:37:24;3.88;;;2.70;;
78871;SDS011;68247;43.514;1.502;2023-08-07T14:39:50;4.53;;;2.63;;
78871;SDS011;68247;43.514;1.502;2023-08-07T14:42:15;3.80;;;2.50;;
78871;SDS011;68247;43.514;1.502;2023-08-07T14:44:41;4.93;;;3.00;;
78871;SDS011;68247;43.514;1.502;2023-08-07T14:47:06;5.13;;;3.00;;
78871;SDS011;68247;43.514;1.502;2023-08-07T14:49:32;4.33;;;2.60;;
78871;SDS011;68247;43.514;1.502;2023-08-07T14:51:57;4.17;;;2.80;;
78871;SDS011;68247;43.514;1.502;2023-08-07T14:54:22;4.00;;;2.40;;
78871;SDS011;68247;43.514;1.502;2023-08-07T14:56:48;4.67;;;2.70;;
78871;SDS011;68247;43.514;1.502;2023-08-07T14:59:14;4.18;;;3.00;;
78871;SDS011;68247;43.514;1.502;2023-08-07T15:01:40;4.10;;;2.70;;
78871;SDS011;68247;43.514;1.502;2023-08-07T15:04:05;5.47;;;4.10;;